createdAt,value
2023-02-18T00:04:50.435Z,2.2
2023-02-18T00:14:51.171Z,1.5
2023-02-18T00:24:51.922Z,1.5
2023-02-18T00:29:18.966Z,1.5
2023-02-18T00:34:52.721Z,1.4
2023-02-18T00:44:53.359Z,1.2
2023-02-18T00:54:54.334Z,1.1
2023-02-18T00:55:49.117Z,1.1
2023-02-18T01:04:54.785Z,1.1
2023-02-18T01:14:56.704Z,1
2023-02-18T01:24:56.228Z,1
2023-02-18T01:34:57.107Z,1.2
2023-02-18T01:44:57.817Z,0.9
2023-02-18T01:54:58.504Z,0.9
2023-02-18T02:04:59.260Z,0.7
2023-02-18T02:15:00.130Z,0.9
2023-02-18T02:25:00.685Z,0.9
2023-02-18T02:35:01.464Z,0.9
2023-02-18T02:45:02.046Z,0.8
2023-02-18T02:55:02.690Z,1
2023-02-18T03:05:03.296Z,1
2023-02-18T03:15:03.874Z,1
2023-02-18T03:25:04.529Z,1.1
2023-02-18T03:35:05.140Z,1.1
2023-02-18T03:45:05.740Z,1
2023-02-18T03:55:06.330Z,1.1
2023-02-18T04:05:06.972Z,1.3
2023-02-18T04:15:07.602Z,1
2023-02-18T04:25:08.255Z,0.9
2023-02-18T04:35:08.848Z,0.9
2023-02-18T04:45:09.364Z,0.8
2023-02-18T04:55:09.915Z,1
2023-02-18T05:05:10.391Z,1
2023-02-18T05:15:18.022Z,1.1
2023-02-18T05:25:11.532Z,1.2
2023-02-18T05:35:12.045Z,1.4
2023-02-18T05:45:12.412Z,1.3
2023-02-18T05:55:12.789Z,1.3
2023-02-18T06:05:13.259Z,1.6
2023-02-18T06:15:13.718Z,1.5
2023-02-18T06:25:13.978Z,1.6
2023-02-18T06:35:14.541Z,1.6
2023-02-18T06:45:14.842Z,1.6
2023-02-18T06:55:15.178Z,1.6
2023-02-18T07:05:15.559Z,1.8
2023-02-18T07:15:15.908Z,2.1
2023-02-18T07:25:16.272Z,1.9
2023-02-18T07:35:16.609Z,2.5
2023-02-18T07:45:17.093Z,2
2023-02-18T07:55:17.187Z,2.1
2023-02-18T08:05:17.449Z,1.9
2023-02-18T08:15:17.767Z,1.8
2023-02-18T08:25:28.876Z,1.8
2023-02-18T08:35:18.420Z,1.8
2023-02-18T08:45:18.762Z,1.7
2023-02-18T08:55:18.995Z,1.8
2023-02-18T09:05:19.455Z,1.8
2023-02-18T09:15:19.490Z,1.8
2023-02-18T09:25:19.782Z,1.7
2023-02-18T09:35:20.140Z,2.1
2023-02-18T09:45:20.354Z,1.6
2023-02-18T09:55:20.702Z,1.3
2023-02-18T10:05:20.968Z,1.5
2023-02-18T10:15:21.161Z,1.3
2023-02-18T10:25:26.029Z,1.5
2023-02-18T10:35:21.570Z,1.6
2023-02-18T10:45:21.704Z,1.7
2023-02-18T10:55:21.980Z,1.5
2023-02-18T11:05:22.343Z,1.5
2023-02-18T11:15:22.470Z,1.6
2023-02-18T11:25:22.689Z,1.6
2023-02-18T11:35:23.023Z,1.5
2023-02-18T11:45:23.166Z,1.4
2023-02-18T11:55:24.747Z,1.4
2023-02-18T12:05:23.763Z,1.4
2023-02-18T12:15:23.886Z,1.6
2023-02-18T12:25:24.131Z,1.3
2023-02-18T12:35:24.257Z,1.4
2023-02-18T12:45:24.395Z,1.4
2023-02-18T12:55:24.669Z,1.3
2023-02-18T13:05:24.798Z,1.4
2023-02-18T13:15:24.966Z,1.4
2023-02-18T13:25:25.144Z,1.6
2023-02-18T13:35:25.427Z,1.5
2023-02-18T13:45:25.680Z,1.2
2023-02-18T13:55:25.935Z,1.4
2023-02-18T14:05:26.252Z,1.3
2023-02-18T14:15:27.966Z,1.4
2023-02-18T14:25:26.823Z,1.3
2023-02-18T14:35:28.276Z,1.3
2023-02-18T14:45:28.655Z,1.5
2023-02-18T14:55:27.820Z,1.3
2023-02-18T15:05:28.232Z,1.4
2023-02-18T15:15:28.544Z,1.5
2023-02-18T15:25:29.114Z,1.4
2023-02-18T15:35:29.316Z,1.6
2023-02-18T15:45:29.645Z,1.5
2023-02-18T15:55:30.072Z,1.6
2023-02-18T16:05:30.612Z,1.7
2023-02-18T16:15:30.980Z,1.6
2023-02-18T16:25:32.745Z,1.8
2023-02-18T16:31:13.149Z,1.8
2023-02-18T16:35:40.555Z,1.7
2023-02-18T16:45:32.582Z,1.7
2023-02-18T16:55:33.032Z,1.9
2023-02-18T16:59:10.115Z,1.9
2023-02-18T17:05:33.621Z,1.7
2023-02-18T17:15:34.209Z,1.7
2023-02-18T17:25:34.867Z,1.6
2023-02-18T17:35:35.445Z,1.6
2023-02-18T17:45:36.304Z,1.6
2023-02-18T17:55:36.845Z,1.9
2023-02-18T18:05:37.507Z,1.9
2023-02-18T18:15:38.205Z,1.6
2023-02-18T18:25:38.945Z,2.1
2023-02-18T18:35:39.712Z,2.1
2023-02-18T18:45:40.430Z,1.7
2023-02-18T18:55:41.173Z,1.9
2023-02-18T19:05:41.894Z,2.2
2023-02-18T19:15:42.644Z,2.1
2023-02-18T19:25:44.775Z,1.7
2023-02-18T19:29:48.632Z,1.7
2023-02-18T19:35:44.206Z,2
2023-02-18T19:42:13.476Z,2
2023-02-18T19:43:36.673Z,2
2023-02-18T19:45:44.996Z,1.6
2023-02-18T19:55:45.804Z,1.6
2023-02-18T20:05:46.675Z,1.9
2023-02-18T20:15:47.479Z,1.7
2023-02-18T20:25:48.271Z,1.7
2023-02-18T20:35:49.153Z,1.8
2023-02-18T20:45:50.087Z,1.9
2023-02-18T20:55:50.967Z,1
2023-02-18T21:05:51.852Z,1.2
2023-02-18T21:15:52.712Z,1.2
2023-02-18T21:25:53.580Z,1
2023-02-18T21:35:54.491Z,1.1
2023-02-18T21:45:55.355Z,1.2
2023-02-18T21:56:03.500Z,1.4
2023-02-18T22:05:57.064Z,1.1
2023-02-18T22:15:57.959Z,1.1
2023-02-18T22:25:58.788Z,1
2023-02-18T22:35:59.489Z,3
2023-02-18T22:46:00.308Z,6.7
2023-02-18T22:56:01.052Z,14.1
2023-02-18T23:06:01.699Z,9.9
2023-02-18T23:16:02.460Z,5.1
2023-02-18T23:21:01.355Z,5.1
2023-02-18T23:26:03.120Z,6.9
2023-02-18T23:36:03.730Z,17.1
2023-02-18T23:46:04.512Z,3.4
2023-02-18T23:56:04.952Z,1.9
